KBIH

Bishop Airport

Bishop, California, USA
METAR KBIH 162256Z AUTO 00000KT 10SM CLR 11/M08 A3008 RMK AO2 SLP187 T01061078
Observed Flight Rules
Dec-16 @ 22:56 UTC (16 minutes ago) Visual Flight Rules
Visibility Clouds
10 miles
  • Clear skies
Temperatures Readings
Current 11°C / 52°F
Dewpoint -8°C / 18°F
Humidity 26%
Altimeter 30.08" Hg
Pressure 1018.7 hPa
Elevation 1253
METAR KBIH 162256Z AUTO 00000KT 10SM CLR 11/M08 A3008 RMK AO2 SLP187 T01061078
Observed Flight Rules
Dec-16 @ 22:56 UTC
(16 minutes ago)
VFR
Clouds
  • Clear skies
Temperature Dewpoint
11°C / 52°F -8°C / 18°F
Humidity Altimeter Pressure
26% 30.08" Hg 1018.7 hPa